sensor_id;sensor_type;location;lat;lon;timestamp;temperature;humidity
15937;DHT22;9163;48.818;8.976;2023-06-26T00:00:40;20.30;99.90
15937;DHT22;9163;48.818;8.976;2023-06-26T00:03:07;20.30;99.90
15937;DHT22;9163;48.818;8.976;2023-06-26T00:05:35;20.30;99.90
15937;DHT22;9163;48.818;8.976;2023-06-26T00:08:02;20.30;99.90
15937;DHT22;9163;48.818;8.976;2023-06-26T00:10:30;20.40;99.90
15937;DHT22;9163;48.818;8.976;2023-06-26T00:12:57;20.40;99.90
15937;DHT22;9163;48.818;8.976;2023-06-26T00:15:26;20.40;99.90
15937;DHT22;9163;48.818;8.976;2023-06-26T00:17:57;20.40;99.90
15937;DHT22;9163;48.818;8.976;2023-06-26T00:20:24;20.40;1.00
15937;DHT22;9163;48.818;8.976;2023-06-26T00:22:52;20.40;1.00
15937;DHT22;9163;48.818;8.976;2023-06-26T00:25:19;20.40;1.00
15937;DHT22;9163;48.818;8.976;2023-06-26T00:27:47;20.40;1.00
15937;DHT22;9163;48.818;8.976;2023-06-26T00:30:14;20.40;1.00
15937;DHT22;9163;48.818;8.976;2023-06-26T00:32:42;20.30;1.00
15937;DHT22;9163;48.818;8.976;2023-06-26T00:35:10;20.20;1.00
15937;DHT22;9163;48.818;8.976;2023-06-26T00:37:37;20.20;1.00
15937;DHT22;9163;48.818;8.976;2023-06-26T00:40:05;20.20;1.00
15937;DHT22;9163;48.818;8.976;2023-06-26T00:42:32;20.10;1.00
15937;DHT22;9163;48.818;8.976;2023-06-26T00:45:00;20.10;1.00
15937;DHT22;9163;48.818;8.976;2023-06-26T00:47:27;20.10;1.00
15937;DHT22;9163;48.818;8.976;2023-06-26T00:49:56;20.10;1.00
15937;DHT22;9163;48.818;8.976;2023-06-26T00:52:24;20.00;1.00
15937;DHT22;9163;48.818;8.976;2023-06-26T00:54:52;20.00;1.00
15937;DHT22;9163;48.818;8.976;2023-06-26T00:57:19;20.10;1.00
15937;DHT22;9163;48.818;8.976;2023-06-26T00:59:47;20.00;1.90
15937;DHT22;9163;48.818;8.976;2023-06-26T01:02:15;20.00;43.40
15937;DHT22;9163;48.818;8.976;2023-06-26T01:04:43;20.00;99.90
15937;DHT22;9163;48.818;8.976;2023-06-26T01:07:15;19.90;99.90
15937;DHT22;9163;48.818;8.976;2023-06-26T01:09:45;19.90;99.90
15937;DHT22;9163;48.818;8.976;2023-06-26T01:12:13;20.00;99.90
15937;DHT22;9163;48.818;8.976;2023-06-26T01:14:40;19.90;99.90
15937;DHT22;9163;48.818;8.976;2023-06-26T01:17:09;19.90;99.90
15937;DHT22;9163;48.818;8.976;2023-06-26T01:19:40;19.90;99.90
15937;DHT22;9163;48.818;8.976;2023-06-26T01:22:17;19.80;99.90
15937;DHT22;9163;48.818;8.976;2023-06-26T01:24:54;19.90;99.90
15937;DHT22;9163;48.818;8.976;2023-06-26T01:27:26;19.80;99.90
15937;DHT22;9163;48.818;8.976;2023-06-26T01:29:54;19.80;1.00
15937;DHT22;9163;48.818;8.976;2023-06-26T01:32:22;19.80;1.00
15937;DHT22;9163;48.818;8.976;2023-06-26T01:34:50;19.70;1.00
15937;DHT22;9163;48.818;8.976;2023-06-26T01:37:18;19.60;1.00
15937;DHT22;9163;48.818;8.976;2023-06-26T01:39:45;19.50;1.00
15937;DHT22;9163;48.818;8.976;2023-06-26T01:42:12;19.40;1.00
15937;DHT22;9163;48.818;8.976;2023-06-26T01:44:45;19.30;1.00
15937;DHT22;9163;48.818;8.976;2023-06-26T01:47:17;19.30;1.00
15937;DHT22;9163;48.818;8.976;2023-06-26T01:49:48;19.20;1.00
15937;DHT22;9163;48.818;8.976;2023-06-26T01:52:20;19.10;1.00
15937;DHT22;9163;48.818;8.976;2023-06-26T01:54:55;19.00;1.00
15937;DHT22;9163;48.818;8.976;2023-06-26T01:57:26;19.00;1.00
15937;DHT22;9163;48.818;8.976;2023-06-26T01:59:56;18.90;1.00
15937;DHT22;9163;48.818;8.976;2023-06-26T02:02:24;18.90;1.00
15937;DHT22;9163;48.818;8.976;2023-06-26T02:04:52;18.90;1.00
15937;DHT22;9163;48.818;8.976;2023-06-26T02:07:19;18.70;1.00
15937;DHT22;9163;48.818;8.976;2023-06-26T02:09:46;18.70;1.00
15937;DHT22;9163;48.818;8.976;2023-06-26T02:12:14;18.60;1.00
15937;DHT22;9163;48.818;8.976;2023-06-26T02:14:41;18.50;1.00
15937;DHT22;9163;48.818;8.976;2023-06-26T02:17:10;18.50;1.00
15937;DHT22;9163;48.818;8.976;2023-06-26T02:19:37;18.40;1.00
15937;DHT22;9163;48.818;8.976;2023-06-26T02:22:13;18.40;1.00
15937;DHT22;9163;48.818;8.976;2023-06-26T02:24:41;18.40;1.00
15937;DHT22;9163;48.818;8.976;2023-06-26T02:27:08;18.30;1.00
15937;DHT22;9163;48.818;8.976;2023-06-26T02:29:35;18.30;1.00
15937;DHT22;9163;48.818;8.976;2023-06-26T02:32:03;18.20;1.00
15937;DHT22;9163;48.818;8.976;2023-06-26T02:34:32;18.20;1.00
15937;DHT22;9163;48.818;8.976;2023-06-26T02:36:59;18.10;1.00
15937;DHT22;9163;48.818;8.976;2023-06-26T02:39:26;18.00;1.00
15937;DHT22;9163;48.818;8.976;2023-06-26T02:41:53;18.10;1.00
15937;DHT22;9163;48.818;8.976;2023-06-26T02:44:21;18.10;1.00
15937;DHT22;9163;48.818;8.976;2023-06-26T02:46:48;18.10;1.00
15937;DHT22;9163;48.818;8.976;2023-06-26T02:49:15;18.10;1.00
15937;DHT22;9163;48.818;8.976;2023-06-26T02:51:44;18.10;1.00
15937;DHT22;9163;48.818;8.976;2023-06-26T02:54:11;18.00;1.00
15937;DHT22;9163;48.818;8.976;2023-06-26T02:56:38;18.00;1.00
15937;DHT22;9163;48.818;8.976;2023-06-26T02:59:05;18.00;1.00
15937;DHT22;9163;48.818;8.976;2023-06-26T03:01:33;18.00;1.00
15937;DHT22;9163;48.818;8.976;2023-06-26T03:04:00;18.00;1.00
15937;DHT22;9163;48.818;8.976;2023-06-26T03:06:27;18.00;1.00
15937;DHT22;9163;48.818;8.976;2023-06-26T03:08:56;18.00;1.00
15937;DHT22;9163;48.818;8.976;2023-06-26T03:11:23;17.90;1.00
15937;DHT22;9163;48.818;8.976;2023-06-26T03:13:50;17.90;1.00
15937;DHT22;9163;48.818;8.976;2023-06-26T03:16:18;17.90;1.00
15937;DHT22;9163;48.818;8.976;2023-06-26T03:18:45;17.80;1.00
15937;DHT22;9163;48.818;8.976;2023-06-26T03:21:12;17.80;1.00
15937;DHT22;9163;48.818;8.976;2023-06-26T03:23:39;17.80;1.00
15937;DHT22;9163;48.818;8.976;2023-06-26T03:26:08;17.80;1.00
15937;DHT22;9163;48.818;8.976;2023-06-26T03:28:35;17.80;1.00
15937;DHT22;9163;48.818;8.976;2023-06-26T03:31:02;17.70;1.00
15937;DHT22;9163;48.818;8.976;2023-06-26T03:33:30;17.70;1.00
15937;DHT22;9163;48.818;8.976;2023-06-26T03:35:57;17.70;1.00
15937;DHT22;9163;48.818;8.976;2023-06-26T03:38:25;17.70;1.00
15937;DHT22;9163;48.818;8.976;2023-06-26T03:40:52;17.80;1.00
15937;DHT22;9163;48.818;8.976;2023-06-26T03:43:21;17.80;1.00
15937;DHT22;9163;48.818;8.976;2023-06-26T03:45:48;17.80;1.00
15937;DHT22;9163;48.818;8.976;2023-06-26T03:48:16;17.80;1.00
15937;DHT22;9163;48.818;8.976;2023-06-26T03:50:43;17.80;1.00
15937;DHT22;9163;48.818;8.976;2023-06-26T03:53:11;17.90;1.00
15937;DHT22;9163;48.818;8.976;2023-06-26T03:55:38;17.90;1.00
15937;DHT22;9163;48.818;8.976;2023-06-26T03:58:05;17.80;1.00
15937;DHT22;9163;48.818;8.976;2023-06-26T04:00:34;17.70;1.00
15937;DHT22;9163;48.818;8.976;2023-06-26T04:03:01;17.70;1.00
15937;DHT22;9163;48.818;8.976;2023-06-26T04:05:30;17.70;1.00
15937;DHT22;9163;48.818;8.976;2023-06-26T04:07:57;17.70;1.00
15937;DHT22;9163;48.818;8.976;2023-06-26T04:10:24;17.70;1.00
15937;DHT22;9163;48.818;8.976;2023-06-26T04:12:51;17.70;1.00
15937;DHT22;9163;48.818;8.976;2023-06-26T04:15:19;17.70;1.00
15937;DHT22;9163;48.818;8.976;2023-06-26T04:17:47;17.80;1.00
15937;DHT22;9163;48.818;8.976;2023-06-26T04:20:15;17.80;1.00
15937;DHT22;9163;48.818;8.976;2023-06-26T04:22:42;17.80;1.00
15937;DHT22;9163;48.818;8.976;2023-06-26T04:25:09;17.90;1.00
15937;DHT22;9163;48.818;8.976;2023-06-26T04:27:37;17.90;1.00
15937;DHT22;9163;48.818;8.976;2023-06-26T04:30:06;17.90;1.00
15937;DHT22;9163;48.818;8.976;2023-06-26T04:32:33;17.90;1.00
15937;DHT22;9163;48.818;8.976;2023-06-26T04:35:02;18.00;1.00
15937;DHT22;9163;48.818;8.976;2023-06-26T04:37:29;18.10;1.00
15937;DHT22;9163;48.818;8.976;2023-06-26T04:39:57;18.10;1.00
15937;DHT22;9163;48.818;8.976;2023-06-26T04:42:24;18.20;1.00
15937;DHT22;9163;48.818;8.976;2023-06-26T04:44:51;18.30;1.00
15937;DHT22;9163;48.818;8.976;2023-06-26T04:47:18;18.30;1.00
15937;DHT22;9163;48.818;8.976;2023-06-26T04:49:45;18.30;1.00
15937;DHT22;9163;48.818;8.976;2023-06-26T04:52:14;18.40;1.00
15937;DHT22;9163;48.818;8.976;2023-06-26T04:54:41;18.50;1.00
15937;DHT22;9163;48.818;8.976;2023-06-26T04:57:08;18.60;1.00
15937;DHT22;9163;48.818;8.976;2023-06-26T04:59:37;18.70;1.00
15937;DHT22;9163;48.818;8.976;2023-06-26T05:02:05;18.80;1.00
15937;DHT22;9163;48.818;8.976;2023-06-26T05:04:32;18.90;1.00
15937;DHT22;9163;48.818;8.976;2023-06-26T05:06:59;19.00;1.00
15937;DHT22;9163;48.818;8.976;2023-06-26T05:09:28;18.90;1.00
15937;DHT22;9163;48.818;8.976;2023-06-26T05:11:55;18.90;1.00
15937;DHT22;9163;48.818;8.976;2023-06-26T05:14:22;19.00;1.00
15937;DHT22;9163;48.818;8.976;2023-06-26T05:16:50;19.20;1.00
15937;DHT22;9163;48.818;8.976;2023-06-26T05:19:17;19.30;1.00
15937;DHT22;9163;48.818;8.976;2023-06-26T05:21:45;19.30;1.00
15937;DHT22;9163;48.818;8.976;2023-06-26T05:24:13;19.50;1.00
15937;DHT22;9163;48.818;8.976;2023-06-26T05:26:44;19.50;1.00
15937;DHT22;9163;48.818;8.976;2023-06-26T05:29:12;19.60;1.00
15937;DHT22;9163;48.818;8.976;2023-06-26T05:31:41;19.70;1.00
15937;DHT22;9163;48.818;8.976;2023-06-26T05:34:10;19.70;1.00
15937;DHT22;9163;48.818;8.976;2023-06-26T05:36:38;19.70;1.00
15937;DHT22;9163;48.818;8.976;2023-06-26T05:39:07;19.90;1.00
15937;DHT22;9163;48.818;8.976;2023-06-26T05:41:35;20.10;1.00
15937;DHT22;9163;48.818;8.976;2023-06-26T05:44:04;20.20;1.00
15937;DHT22;9163;48.818;8.976;2023-06-26T05:46:31;20.50;1.00
15937;DHT22;9163;48.818;8.976;2023-06-26T05:48:58;20.60;1.00
15937;DHT22;9163;48.818;8.976;2023-06-26T05:51:27;20.80;1.00
15937;DHT22;9163;48.818;8.976;2023-06-26T05:53:55;21.00;1.00
15937;DHT22;9163;48.818;8.976;2023-06-26T05:56:23;21.10;1.00
15937;DHT22;9163;48.818;8.976;2023-06-26T05:58:51;21.20;1.00
15937;DHT22;9163;48.818;8.976;2023-06-26T06:01:20;21.30;1.00
15937;DHT22;9163;48.818;8.976;2023-06-26T06:03:47;21.60;1.00
15937;DHT22;9163;48.818;8.976;2023-06-26T06:06:14;21.80;1.00
15937;DHT22;9163;48.818;8.976;2023-06-26T06:08:42;21.90;1.00
15937;DHT22;9163;48.818;8.976;2023-06-26T06:11:09;22.20;1.00
15937;DHT22;9163;48.818;8.976;2023-06-26T06:13:36;22.40;1.00
15937;DHT22;9163;48.818;8.976;2023-06-26T06:16:04;22.50;1.00
15937;DHT22;9163;48.818;8.976;2023-06-26T06:18:33;22.60;1.00
15937;DHT22;9163;48.818;8.976;2023-06-26T06:21:00;22.60;1.00
15937;DHT22;9163;48.818;8.976;2023-06-26T06:23:27;22.80;1.00
15937;DHT22;9163;48.818;8.976;2023-06-26T06:25:55;22.90;1.00
15937;DHT22;9163;48.818;8.976;2023-06-26T06:28:22;23.10;1.00
15937;DHT22;9163;48.818;8.976;2023-06-26T06:30:49;23.30;1.00
15937;DHT22;9163;48.818;8.976;2023-06-26T06:33:16;23.50;1.00
15937;DHT22;9163;48.818;8.976;2023-06-26T06:35:45;23.60;1.00
15937;DHT22;9163;48.818;8.976;2023-06-26T06:38:12;23.70;1.00
15937;DHT22;9163;48.818;8.976;2023-06-26T06:40:40;23.80;1.00
15937;DHT22;9163;48.818;8.976;2023-06-26T06:43:07;24.00;1.00
15937;DHT22;9163;48.818;8.976;2023-06-26T06:45:34;24.30;1.00
15937;DHT22;9163;48.818;8.976;2023-06-26T06:48:04;24.30;1.00
15937;DHT22;9163;48.818;8.976;2023-06-26T06:50:31;24.60;1.00
15937;DHT22;9163;48.818;8.976;2023-06-26T06:53:00;24.90;1.00
15937;DHT22;9163;48.818;8.976;2023-06-26T06:55:27;25.00;1.00
15937;DHT22;9163;48.818;8.976;2023-06-26T06:57:54;25.20;1.00
15937;DHT22;9163;48.818;8.976;2023-06-26T07:00:21;25.30;99.90
15937;DHT22;9163;48.818;8.976;2023-06-26T07:02:48;25.50;99.90
15937;DHT22;9163;48.818;8.976;2023-06-26T07:05:16;25.60;99.90
15937;DHT22;9163;48.818;8.976;2023-06-26T07:07:43;25.90;99.90
15937;DHT22;9163;48.818;8.976;2023-06-26T07:10:13;26.20;99.90
15937;DHT22;9163;48.818;8.976;2023-06-26T07:12:40;26.50;99.90
15937;DHT22;9163;48.818;8.976;2023-06-26T07:15:08;26.80;1.00
15937;DHT22;9163;48.818;8.976;2023-06-26T07:17:35;26.90;1.00
15937;DHT22;9163;48.818;8.976;2023-06-26T07:20:04;27.10;1.00
15937;DHT22;9163;48.818;8.976;2023-06-26T07:22:34;27.20;1.00
15937;DHT22;9163;48.818;8.976;2023-06-26T07:25:01;27.30;1.00
15937;DHT22;9163;48.818;8.976;2023-06-26T07:27:31;27.40;1.00
15937;DHT22;9163;48.818;8.976;2023-06-26T07:29:59;27.60;1.00
15937;DHT22;9163;48.818;8.976;2023-06-26T07:32:26;27.90;1.00
15937;DHT22;9163;48.818;8.976;2023-06-26T07:34:53;27.70;1.00
15937;DHT22;9163;48.818;8.976;2023-06-26T07:37:21;27.80;99.90
15937;DHT22;9163;48.818;8.976;2023-06-26T07:39:49;28.00;99.90
15937;DHT22;9163;48.818;8.976;2023-06-26T07:42:16;27.90;99.90
15937;DHT22;9163;48.818;8.976;2023-06-26T07:44:45;28.00;99.90
15937;DHT22;9163;48.818;8.976;2023-06-26T07:47:12;28.00;31.80
15937;DHT22;9163;48.818;8.976;2023-06-26T07:49:40;28.10;1.00
15937;DHT22;9163;48.818;8.976;2023-06-26T07:52:07;28.40;27.50
15937;DHT22;9163;48.818;8.976;2023-06-26T07:54:36;28.50;52.00
15937;DHT22;9163;48.818;8.976;2023-06-26T07:57:04;28.50;81.80
15937;DHT22;9163;48.818;8.976;2023-06-26T07:59:33;28.50;1.00
15937;DHT22;9163;48.818;8.976;2023-06-26T08:02:02;28.50;1.00
15937;DHT22;9163;48.818;8.976;2023-06-26T08:04:29;28.70;1.00
15937;DHT22;9163;48.818;8.976;2023-06-26T08:06:58;28.90;1.00
15937;DHT22;9163;48.818;8.976;2023-06-26T08:09:27;29.00;1.00
15937;DHT22;9163;48.818;8.976;2023-06-26T08:11:55;29.20;1.00
15937;DHT22;9163;48.818;8.976;2023-06-26T08:14:22;29.20;1.00
15937;DHT22;9163;48.818;8.976;2023-06-26T08:16:50;29.10;1.00
15937;DHT22;9163;48.818;8.976;2023-06-26T08:19:18;28.90;1.00
15937;DHT22;9163;48.818;8.976;2023-06-26T08:21:46;29.10;1.00
15937;DHT22;9163;48.818;8.976;2023-06-26T08:24:14;28.80;1.00
15937;DHT22;9163;48.818;8.976;2023-06-26T08:26:45;29.10;1.00
15937;DHT22;9163;48.818;8.976;2023-06-26T08:29:12;29.10;1.00
15937;DHT22;9163;48.818;8.976;2023-06-26T08:31:40;29.50;1.00
15937;DHT22;9163;48.818;8.976;2023-06-26T08:34:08;30.10;1.00
15937;DHT22;9163;48.818;8.976;2023-06-26T08:36:37;30.40;1.00
15937;DHT22;9163;48.818;8.976;2023-06-26T08:39:04;30.00;1.00
15937;DHT22;9163;48.818;8.976;2023-06-26T08:41:32;30.20;1.00
15937;DHT22;9163;48.818;8.976;2023-06-26T08:43:59;29.90;1.00
15937;DHT22;9163;48.818;8.976;2023-06-26T08:46:28;29.70;1.00
15937;DHT22;9163;48.818;8.976;2023-06-26T08:48:57;30.10;1.00
15937;DHT22;9163;48.818;8.976;2023-06-26T08:51:28;29.90;1.00
15937;DHT22;9163;48.818;8.976;2023-06-26T08:53:58;29.80;1.00
15937;DHT22;9163;48.818;8.976;2023-06-26T08:56:28;29.90;1.00
15937;DHT22;9163;48.818;8.976;2023-06-26T08:58:58;30.10;1.00
15937;DHT22;9163;48.818;8.976;2023-06-26T09:01:26;30.80;1.00
15937;DHT22;9163;48.818;8.976;2023-06-26T09:03:53;31.60;1.00
15937;DHT22;9163;48.818;8.976;2023-06-26T09:06:20;31.50;1.00
15937;DHT22;9163;48.818;8.976;2023-06-26T09:08:48;31.60;99.90
15937;DHT22;9163;48.818;8.976;2023-06-26T09:11:16;32.00;99.90
15937;DHT22;9163;48.818;8.976;2023-06-26T09:13:44;31.90;99.90
15937;DHT22;9163;48.818;8.976;2023-06-26T09:16:13;31.90;99.90
15937;DHT22;9163;48.818;8.976;2023-06-26T09:18:41;32.00;99.90
15937;DHT22;9163;48.818;8.976;2023-06-26T09:21:09;32.30;99.90
15937;DHT22;9163;48.818;8.976;2023-06-26T09:23:36;32.50;99.90
15937;DHT22;9163;48.818;8.976;2023-06-26T09:26:07;32.70;99.90
15937;DHT22;9163;48.818;8.976;2023-06-26T09:28:35;32.10;99.90
15937;DHT22;9163;48.818;8.976;2023-06-26T09:31:04;31.80;99.90
15937;DHT22;9163;48.818;8.976;2023-06-26T09:33:34;32.20;99.90
15937;DHT22;9163;48.818;8.976;2023-06-26T09:36:05;32.70;99.90
15937;DHT22;9163;48.818;8.976;2023-06-26T09:38:34;32.40;99.90
15937;DHT22;9163;48.818;8.976;2023-06-26T09:41:02;32.70;99.90
15937;DHT22;9163;48.818;8.976;2023-06-26T09:43:30;32.50;99.90
15937;DHT22;9163;48.818;8.976;2023-06-26T09:46:00;32.40;99.90
15937;DHT22;9163;48.818;8.976;2023-06-26T09:48:28;32.50;99.90
15937;DHT22;9163;48.818;8.976;2023-06-26T09:50:55;32.90;94.00
15937;DHT22;9163;48.818;8.976;2023-06-26T09:53:23;33.30;99.90
15937;DHT22;9163;48.818;8.976;2023-06-26T09:55:52;33.50;99.90
15937;DHT22;9163;48.818;8.976;2023-06-26T09:58:20;33.70;99.90
15937;DHT22;9163;48.818;8.976;2023-06-26T10:00:48;34.10;99.90
15937;DHT22;9163;48.818;8.976;2023-06-26T10:03:17;34.00;99.90
15937;DHT22;9163;48.818;8.976;2023-06-26T10:05:44;34.30;99.90
15937;DHT22;9163;48.818;8.976;2023-06-26T10:08:12;34.00;99.90
15937;DHT22;9163;48.818;8.976;2023-06-26T10:10:41;33.80;99.90
15937;DHT22;9163;48.818;8.976;2023-06-26T10:13:12;33.70;99.90
15937;DHT22;9163;48.818;8.976;2023-06-26T10:15:43;33.60;99.90
15937;DHT22;9163;48.818;8.976;2023-06-26T10:18:11;32.70;99.90
15937;DHT22;9163;48.818;8.976;2023-06-26T10:20:42;32.00;99.90
15937;DHT22;9163;48.818;8.976;2023-06-26T10:23:12;32.30;99.90
15937;DHT22;9163;48.818;8.976;2023-06-26T10:25:42;31.70;93.70
15937;DHT22;9163;48.818;8.976;2023-06-26T10:28:12;31.80;25.90
15937;DHT22;9163;48.818;8.976;2023-06-26T10:30:41;31.50;21.10
15937;DHT22;9163;48.818;8.976;2023-06-26T10:33:10;31.40;1.00
15937;DHT22;9163;48.818;8.976;2023-06-26T10:35:42;31.00;1.00
15937;DHT22;9163;48.818;8.976;2023-06-26T10:38:10;30.50;27.20
15937;DHT22;9163;48.818;8.976;2023-06-26T10:40:42;31.00;47.80
15937;DHT22;9163;48.818;8.976;2023-06-26T10:43:09;31.10;82.40
15937;DHT22;9163;48.818;8.976;2023-06-26T10:45:43;30.30;48.80
15937;DHT22;9163;48.818;8.976;2023-06-26T10:48:13;30.20;35.90
15937;DHT22;9163;48.818;8.976;2023-06-26T10:50:43;30.20;88.00
15937;DHT22;9163;48.818;8.976;2023-06-26T10:53:14;30.60;99.90
15937;DHT22;9163;48.818;8.976;2023-06-26T10:55:48;30.70;99.90
15937;DHT22;9163;48.818;8.976;2023-06-26T10:58:33;30.30;99.90
15937;DHT22;9163;48.818;8.976;2023-06-26T11:01:20;30.10;99.90
15937;DHT22;9163;48.818;8.976;2023-06-26T11:03:55;30.00;99.90
15937;DHT22;9163;48.818;8.976;2023-06-26T11:06:30;30.40;99.90
15937;DHT22;9163;48.818;8.976;2023-06-26T11:09:01;30.00;99.90
15937;DHT22;9163;48.818;8.976;2023-06-26T11:11:55;30.30;99.90
15937;DHT22;9163;48.818;8.976;2023-06-26T11:14:25;29.70;99.90
15937;DHT22;9163;48.818;8.976;2023-06-26T11:16:55;29.90;99.90
15937;DHT22;9163;48.818;8.976;2023-06-26T11:19:22;29.80;99.90
15937;DHT22;9163;48.818;8.976;2023-06-26T11:21:51;30.60;99.90
15937;DHT22;9163;48.818;8.976;2023-06-26T11:24:19;31.00;99.90
15937;DHT22;9163;48.818;8.976;2023-06-26T11:26:47;30.90;99.90
15937;DHT22;9163;48.818;8.976;2023-06-26T11:29:14;30.80;99.90
15937;DHT22;9163;48.818;8.976;2023-06-26T11:31:42;31.60;99.90
15937;DHT22;9163;48.818;8.976;2023-06-26T11:34:10;31.50;99.90
15937;DHT22;9163;48.818;8.976;2023-06-26T11:36:38;31.80;99.90
15937;DHT22;9163;48.818;8.976;2023-06-26T11:39:09;32.40;99.90
15937;DHT22;9163;48.818;8.976;2023-06-26T11:41:38;32.50;99.90
15937;DHT22;9163;48.818;8.976;2023-06-26T11:44:07;33.00;99.90
15937;DHT22;9163;48.818;8.976;2023-06-26T11:46:36;33.40;99.90
15937;DHT22;9163;48.818;8.976;2023-06-26T11:49:03;32.90;99.90
15937;DHT22;9163;48.818;8.976;2023-06-26T11:51:31;32.70;99.90
15937;DHT22;9163;48.818;8.976;2023-06-26T11:54:01;33.20;99.90
15937;DHT22;9163;48.818;8.976;2023-06-26T11:56:30;33.10;99.90
15937;DHT22;9163;48.818;8.976;2023-06-26T11:58:59;32.90;99.90
15937;DHT22;9163;48.818;8.976;2023-06-26T12:01:29;32.50;99.90
15937;DHT22;9163;48.818;8.976;2023-06-26T12:03:59;32.60;99.90
15937;DHT22;9163;48.818;8.976;2023-06-26T12:06:27;32.40;99.90
15937;DHT22;9163;48.818;8.976;2023-06-26T12:08:55;32.40;99.90
15937;DHT22;9163;48.818;8.976;2023-06-26T12:11:23;31.60;99.90
15937;DHT22;9163;48.818;8.976;2023-06-26T12:13:53;31.70;99.90
15937;DHT22;9163;48.818;8.976;2023-06-26T12:16:20;31.50;99.90
15937;DHT22;9163;48.818;8.976;2023-06-26T12:18:47;31.40;99.90
15937;DHT22;9163;48.818;8.976;2023-06-26T12:21:45;31.30;99.90
15937;DHT22;9163;48.818;8.976;2023-06-26T12:24:14;31.60;99.90
15937;DHT22;9163;48.818;8.976;2023-06-26T12:26:42;31.30;99.90
15937;DHT22;9163;48.818;8.976;2023-06-26T12:29:12;32.00;99.90
15937;DHT22;9163;48.818;8.976;2023-06-26T12:31:40;32.40;99.90
15937;DHT22;9163;48.818;8.976;2023-06-26T12:34:10;32.20;99.90
15937;DHT22;9163;48.818;8.976;2023-06-26T12:36:41;31.10;99.90
15937;DHT22;9163;48.818;8.976;2023-06-26T12:39:10;30.40;99.90
15937;DHT22;9163;48.818;8.976;2023-06-26T12:41:45;30.50;99.90
15937;DHT22;9163;48.818;8.976;2023-06-26T12:44:26;30.40;99.90
15937;DHT22;9163;48.818;8.976;2023-06-26T12:46:55;30.70;99.90
15937;DHT22;9163;48.818;8.976;2023-06-26T12:49:30;30.70;99.90
15937;DHT22;9163;48.818;8.976;2023-06-26T12:51:58;30.10;99.90
15937;DHT22;9163;48.818;8.976;2023-06-26T12:54:26;29.60;99.90
15937;DHT22;9163;48.818;8.976;2023-06-26T12:56:54;29.80;99.90
15937;DHT22;9163;48.818;8.976;2023-06-26T12:59:22;30.50;99.90
15937;DHT22;9163;48.818;8.976;2023-06-26T13:01:50;31.30;99.90
15937;DHT22;9163;48.818;8.976;2023-06-26T13:04:17;31.60;99.90
15937;DHT22;9163;48.818;8.976;2023-06-26T13:06:45;31.80;99.90
15937;DHT22;9163;48.818;8.976;2023-06-26T13:09:13;31.30;99.90
15937;DHT22;9163;48.818;8.976;2023-06-26T13:11:40;30.70;99.90
15937;DHT22;9163;48.818;8.976;2023-06-26T13:14:07;31.10;99.90
15937;DHT22;9163;48.818;8.976;2023-06-26T13:16:36;31.20;99.90
15937;DHT22;9163;48.818;8.976;2023-06-26T13:19:03;31.40;99.90
15937;DHT22;9163;48.818;8.976;2023-06-26T13:21:31;30.20;92.80
15937;DHT22;9163;48.818;8.976;2023-06-26T13:23:58;30.50;99.90
15937;DHT22;9163;48.818;8.976;2023-06-26T13:26:26;30.80;70.70
15937;DHT22;9163;48.818;8.976;2023-06-26T13:28:54;31.00;94.70
15937;DHT22;9163;48.818;8.976;2023-06-26T13:31:22;29.90;1.00
15937;DHT22;9163;48.818;8.976;2023-06-26T13:33:50;29.50;1.00
15937;DHT22;9163;48.818;8.976;2023-06-26T13:36:18;30.20;1.00
15937;DHT22;9163;48.818;8.976;2023-06-26T13:38:47;29.70;1.00
15937;DHT22;9163;48.818;8.976;2023-06-26T13:41:21;29.80;1.00
15937;DHT22;9163;48.818;8.976;2023-06-26T13:43:48;30.20;1.00
15937;DHT22;9163;48.818;8.976;2023-06-26T13:46:16;29.80;1.00
15937;DHT22;9163;48.818;8.976;2023-06-26T13:48:44;29.50;1.00
15937;DHT22;9163;48.818;8.976;2023-06-26T13:51:13;29.20;1.00
15937;DHT22;9163;48.818;8.976;2023-06-26T13:53:40;29.70;1.00
15937;DHT22;9163;48.818;8.976;2023-06-26T13:56:07;30.00;1.00
15937;DHT22;9163;48.818;8.976;2023-06-26T13:58:35;30.40;1.00
15937;DHT22;9163;48.818;8.976;2023-06-26T14:01:04;30.50;1.00
15937;DHT22;9163;48.818;8.976;2023-06-26T14:03:31;30.40;1.00
15937;DHT22;9163;48.818;8.976;2023-06-26T14:05:58;30.50;1.00
15937;DHT22;9163;48.818;8.976;2023-06-26T14:08:27;30.40;1.00
15937;DHT22;9163;48.818;8.976;2023-06-26T14:10:54;30.60;99.90
15937;DHT22;9163;48.818;8.976;2023-06-26T14:13:22;31.10;1.00
15937;DHT22;9163;48.818;8.976;2023-06-26T14:15:49;31.00;22.60
15937;DHT22;9163;48.818;8.976;2023-06-26T14:18:18;30.80;1.00
15937;DHT22;9163;48.818;8.976;2023-06-26T14:20:46;31.00;1.00
15937;DHT22;9163;48.818;8.976;2023-06-26T14:23:14;30.70;1.00
15937;DHT22;9163;48.818;8.976;2023-06-26T14:25:42;30.30;1.00
15937;DHT22;9163;48.818;8.976;2023-06-26T14:28:09;29.90;1.00
15937;DHT22;9163;48.818;8.976;2023-06-26T14:30:37;29.40;1.00
15937;DHT22;9163;48.818;8.976;2023-06-26T14:33:04;29.90;1.00
15937;DHT22;9163;48.818;8.976;2023-06-26T14:35:31;30.00;1.00
15937;DHT22;9163;48.818;8.976;2023-06-26T14:37:58;29.70;1.00
15937;DHT22;9163;48.818;8.976;2023-06-26T14:40:26;30.00;1.00
15937;DHT22;9163;48.818;8.976;2023-06-26T14:42:54;30.10;1.00
15937;DHT22;9163;48.818;8.976;2023-06-26T14:45:21;29.90;1.00
15937;DHT22;9163;48.818;8.976;2023-06-26T14:47:49;29.60;1.00
15937;DHT22;9163;48.818;8.976;2023-06-26T14:50:16;29.40;1.00
15937;DHT22;9163;48.818;8.976;2023-06-26T14:52:43;29.30;1.00
15937;DHT22;9163;48.818;8.976;2023-06-26T14:55:10;29.20;20.30
15937;DHT22;9163;48.818;8.976;2023-06-26T14:57:38;29.60;55.50
15937;DHT22;9163;48.818;8.976;2023-06-26T15:00:08;29.30;1.00
15937;DHT22;9163;48.818;8.976;2023-06-26T15:02:35;29.20;1.00
15937;DHT22;9163;48.818;8.976;2023-06-26T15:05:02;29.10;1.00
15937;DHT22;9163;48.818;8.976;2023-06-26T15:07:30;29.80;23.40
15937;DHT22;9163;48.818;8.976;2023-06-26T15:09:57;29.70;1.00
15937;DHT22;9163;48.818;8.976;2023-06-26T15:12:24;30.00;1.00
15937;DHT22;9163;48.818;8.976;2023-06-26T15:14:53;29.90;18.40
15937;DHT22;9163;48.818;8.976;2023-06-26T15:17:21;29.60;1.00
15937;DHT22;9163;48.818;8.976;2023-06-26T15:19:49;29.20;1.00
15937;DHT22;9163;48.818;8.976;2023-06-26T15:22:17;28.90;1.00
15937;DHT22;9163;48.818;8.976;2023-06-26T15:24:45;28.70;1.00
15937;DHT22;9163;48.818;8.976;2023-06-26T15:27:12;28.70;1.00
15937;DHT22;9163;48.818;8.976;2023-06-26T15:29:40;28.80;1.00
15937;DHT22;9163;48.818;8.976;2023-06-26T15:32:07;28.50;1.00
15937;DHT22;9163;48.818;8.976;2023-06-26T15:34:36;29.00;1.00
15937;DHT22;9163;48.818;8.976;2023-06-26T15:37:04;29.10;1.00
15937;DHT22;9163;48.818;8.976;2023-06-26T15:39:31;28.90;1.00
15937;DHT22;9163;48.818;8.976;2023-06-26T15:41:58;28.60;1.00
15937;DHT22;9163;48.818;8.976;2023-06-26T15:44:26;28.10;1.00
15937;DHT22;9163;48.818;8.976;2023-06-26T15:46:53;27.90;1.00
15937;DHT22;9163;48.818;8.976;2023-06-26T15:49:20;28.00;1.00
15937;DHT22;9163;48.818;8.976;2023-06-26T15:51:49;27.90;1.00
15937;DHT22;9163;48.818;8.976;2023-06-26T15:54:16;28.10;1.00
15937;DHT22;9163;48.818;8.976;2023-06-26T15:56:43;28.20;1.00
15937;DHT22;9163;48.818;8.976;2023-06-26T15:59:12;28.10;1.00
15937;DHT22;9163;48.818;8.976;2023-06-26T16:01:41;28.00;1.00